sensor_id;sensor_type;location;lat;lon;timestamp;P1;durP1;ratioP1;P2;durP2;ratioP2
72354;SDS011;60314;55.040;73.076;2022-09-12T00:01:31;2.00;;;0.80;;
72354;SDS011;60314;55.040;73.076;2022-09-12T00:03:58;2.08;;;0.88;;
72354;SDS011;60314;55.040;73.076;2022-09-12T00:06:28;3.13;;;0.90;;
72354;SDS011;60314;55.040;73.076;2022-09-12T00:09:00;2.17;;;0.75;;
72354;SDS011;60314;55.040;73.076;2022-09-12T00:11:30;2.65;;;0.93;;
72354;SDS011;60314;55.040;73.076;2022-09-12T00:14:09;3.00;;;0.90;;
72354;SDS011;60314;55.040;73.076;2022-09-12T00:16:37;2.75;;;0.95;;
72354;SDS011;60314;55.040;73.076;2022-09-12T00:19:05;2.00;;;0.80;;
72354;SDS011;60314;55.040;73.076;2022-09-12T00:21:33;2.50;;;0.93;;
72354;SDS011;60314;55.040;73.076;2022-09-12T00:24:00;2.63;;;0.90;;
72354;SDS011;60314;55.040;73.076;2022-09-12T00:26:33;3.60;;;0.80;;
72354;SDS011;60314;55.040;73.076;2022-09-12T00:28:59;5.32;;;0.90;;
72354;SDS011;60314;55.040;73.076;2022-09-12T00:31:26;4.93;;;1.15;;
72354;SDS011;60314;55.040;73.076;2022-09-12T00:33:55;2.10;;;0.75;;
72354;SDS011;60314;55.040;73.076;2022-09-12T00:36:23;2.00;;;0.88;;
72354;SDS011;60314;55.040;73.076;2022-09-12T00:38:50;3.67;;;0.90;;
72354;SDS011;60314;55.040;73.076;2022-09-12T00:41:29;2.30;;;0.88;;
72354;SDS011;60314;55.040;73.076;2022-09-12T00:46:41;3.00;;;0.75;;
72354;SDS011;60314;55.040;73.076;2022-09-12T00:51:59;1.70;;;0.70;;
72354;SDS011;60314;55.040;73.076;2022-09-12T00:54:35;2.40;;;0.90;;
72354;SDS011;60314;55.040;73.076;2022-09-12T00:57:08;3.47;;;0.85;;
72354;SDS011;60314;55.040;73.076;2022-09-12T00:59:40;4.20;;;0.75;;
72354;SDS011;60314;55.040;73.076;2022-09-12T01:02:09;3.15;;;0.70;;
72354;SDS011;60314;55.040;73.076;2022-09-12T01:04:36;2.20;;;0.82;;
72354;SDS011;60314;55.040;73.076;2022-09-12T01:07:05;1.98;;;0.70;;
72354;SDS011;60314;55.040;73.076;2022-09-12T01:09:33;1.88;;;0.70;;
72354;SDS011;60314;55.040;73.076;2022-09-12T01:12:03;2.17;;;0.82;;
72354;SDS011;60314;55.040;73.076;2022-09-12T01:14:31;3.85;;;0.80;;
72354;SDS011;60314;55.040;73.076;2022-09-12T01:16:58;4.00;;;0.88;;
72354;SDS011;60314;55.040;73.076;2022-09-12T01:25:23;2.00;;;0.80;;
72354;SDS011;60314;55.040;73.076;2022-09-12T01:33:31;2.30;;;0.90;;
72354;SDS011;60314;55.040;73.076;2022-09-12T01:38:48;1.60;;;0.65;;
72354;SDS011;60314;55.040;73.076;2022-09-12T01:49:59;5.40;;;1.00;;
72354;SDS011;60314;55.040;73.076;2022-09-12T01:55:22;1.55;;;0.70;;
72354;SDS011;60314;55.040;73.076;2022-09-12T02:00:45;2.47;;;0.73;;
72354;SDS011;60314;55.040;73.076;2022-09-12T02:03:26;2.20;;;0.77;;
72354;SDS011;60314;55.040;73.076;2022-09-12T02:06:05;3.03;;;1.00;;
72354;SDS011;60314;55.040;73.076;2022-09-12T02:08:37;2.58;;;1.13;;
72354;SDS011;60314;55.040;73.076;2022-09-12T02:13:59;1.77;;;0.65;;
72354;SDS011;60314;55.040;73.076;2022-09-12T02:16:29;1.55;;;0.60;;
72354;SDS011;60314;55.040;73.076;2022-09-12T02:19:12;3.70;;;0.70;;
72354;SDS011;60314;55.040;73.076;2022-09-12T02:21:53;3.08;;;0.82;;
72354;SDS011;60314;55.040;73.076;2022-09-12T02:24:24;2.97;;;0.90;;
72354;SDS011;60314;55.040;73.076;2022-09-12T02:26:56;5.53;;;1.00;;
72354;SDS011;60314;55.040;73.076;2022-09-12T02:29:33;2.10;;;0.77;;
72354;SDS011;60314;55.040;73.076;2022-09-12T02:32:03;3.15;;;0.93;;
72354;SDS011;60314;55.040;73.076;2022-09-12T02:39:59;2.30;;;0.77;;
72354;SDS011;60314;55.040;73.076;2022-09-12T02:42:26;3.08;;;0.80;;
72354;SDS011;60314;55.040;73.076;2022-09-12T02:44:53;5.63;;;0.80;;
72354;SDS011;60314;55.040;73.076;2022-09-12T02:47:23;3.25;;;0.82;;
72354;SDS011;60314;55.040;73.076;2022-09-12T02:50:03;4.65;;;0.90;;
72354;SDS011;60314;55.040;73.076;2022-09-12T02:52:32;1.83;;;0.70;;
72354;SDS011;60314;55.040;73.076;2022-09-12T02:55:01;1.85;;;0.70;;
72354;SDS011;60314;55.040;73.076;2022-09-12T02:57:30;1.90;;;0.70;;
72354;SDS011;60314;55.040;73.076;2022-09-12T02:59:57;3.05;;;0.77;;
72354;SDS011;60314;55.040;73.076;2022-09-12T03:05:12;2.00;;;0.73;;
72354;SDS011;60314;55.040;73.076;2022-09-12T03:10:41;1.92;;;0.70;;
72354;SDS011;60314;55.040;73.076;2022-09-12T03:13:51;1.80;;;0.60;;
72354;SDS011;60314;55.040;73.076;2022-09-12T03:16:38;2.45;;;0.85;;
72354;SDS011;60314;55.040;73.076;2022-09-12T03:22:27;1.80;;;0.70;;
72354;SDS011;60314;55.040;73.076;2022-09-12T03:25:11;4.18;;;0.60;;
72354;SDS011;60314;55.040;73.076;2022-09-12T03:28:05;1.52;;;0.63;;
72354;SDS011;60314;55.040;73.076;2022-09-12T03:30:41;10.27;;;0.77;;
72354;SDS011;60314;55.040;73.076;2022-09-12T03:33:10;2.70;;;0.55;;
72354;SDS011;60314;55.040;73.076;2022-09-12T03:35:38;3.95;;;0.50;;
72354;SDS011;60314;55.040;73.076;2022-09-12T03:38:05;1.50;;;0.52;;
72354;SDS011;60314;55.040;73.076;2022-09-12T03:40:33;2.70;;;0.60;;
72354;SDS011;60314;55.040;73.076;2022-09-12T03:43:00;3.03;;;0.70;;
72354;SDS011;60314;55.040;73.076;2022-09-12T03:45:27;2.50;;;0.50;;
72354;SDS011;60314;55.040;73.076;2022-09-12T03:47:54;4.35;;;0.73;;
72354;SDS011;60314;55.040;73.076;2022-09-12T03:50:26;2.30;;;0.50;;
72354;SDS011;60314;55.040;73.076;2022-09-12T03:52:52;2.45;;;0.60;;
72354;SDS011;60314;55.040;73.076;2022-09-12T03:55:18;5.07;;;0.55;;
72354;SDS011;60314;55.040;73.076;2022-09-12T03:57:45;3.72;;;0.70;;
72354;SDS011;60314;55.040;73.076;2022-09-12T04:00:22;3.72;;;1.00;;
72354;SDS011;60314;55.040;73.076;2022-09-12T04:02:58;4.55;;;0.60;;
72354;SDS011;60314;55.040;73.076;2022-09-12T04:05:27;4.43;;;0.70;;
72354;SDS011;60314;55.040;73.076;2022-09-12T04:07:56;1.80;;;0.77;;
72354;SDS011;60314;55.040;73.076;2022-09-12T04:10:22;2.53;;;0.60;;
72354;SDS011;60314;55.040;73.076;2022-09-12T04:12:48;1.45;;;0.55;;
72354;SDS011;60314;55.040;73.076;2022-09-12T04:15:15;4.45;;;1.20;;
72354;SDS011;60314;55.040;73.076;2022-09-12T04:17:42;1.42;;;0.50;;
72354;SDS011;60314;55.040;73.076;2022-09-12T04:20:08;1.92;;;0.70;;
72354;SDS011;60314;55.040;73.076;2022-09-12T04:22:35;3.53;;;0.88;;
72354;SDS011;60314;55.040;73.076;2022-09-12T04:25:02;2.60;;;0.65;;
72354;SDS011;60314;55.040;73.076;2022-09-12T04:27:28;2.20;;;0.70;;
72354;SDS011;60314;55.040;73.076;2022-09-12T04:29:55;5.30;;;0.70;;
72354;SDS011;60314;55.040;73.076;2022-09-12T04:32:33;1.60;;;0.50;;
72354;SDS011;60314;55.040;73.076;2022-09-12T04:35:05;2.85;;;0.73;;
72354;SDS011;60314;55.040;73.076;2022-09-12T04:37:34;2.90;;;0.60;;
72354;SDS011;60314;55.040;73.076;2022-09-12T04:40:13;2.67;;;0.60;;
72354;SDS011;60314;55.040;73.076;2022-09-12T04:43:13;7.05;;;0.80;;
72354;SDS011;60314;55.040;73.076;2022-09-12T04:46:15;1.80;;;0.60;;
72354;SDS011;60314;55.040;73.076;2022-09-12T04:49:08;2.15;;;0.60;;
72354;SDS011;60314;55.040;73.076;2022-09-12T04:51:38;1.65;;;0.70;;
72354;SDS011;60314;55.040;73.076;2022-09-12T04:54:15;2.35;;;0.52;;
72354;SDS011;60314;55.040;73.076;2022-09-12T04:56:52;2.50;;;0.60;;
72354;SDS011;60314;55.040;73.076;2022-09-12T04:59:28;1.63;;;0.60;;
72354;SDS011;60314;55.040;73.076;2022-09-12T05:02:15;1.98;;;0.70;;
72354;SDS011;60314;55.040;73.076;2022-09-12T05:04:41;1.67;;;0.65;;
72354;SDS011;60314;55.040;73.076;2022-09-12T05:07:08;3.28;;;0.70;;
72354;SDS011;60314;55.040;73.076;2022-09-12T05:09:34;1.42;;;0.52;;
72354;SDS011;60314;55.040;73.076;2022-09-12T05:12:01;2.25;;;0.80;;
72354;SDS011;60314;55.040;73.076;2022-09-12T05:14:30;5.50;;;0.95;;
72354;SDS011;60314;55.040;73.076;2022-09-12T05:16:57;1.75;;;0.60;;
72354;SDS011;60314;55.040;73.076;2022-09-12T05:19:26;1.65;;;0.52;;
72354;SDS011;60314;55.040;73.076;2022-09-12T05:21:53;3.40;;;0.82;;
72354;SDS011;60314;55.040;73.076;2022-09-12T05:24:21;1.13;;;0.45;;
72354;SDS011;60314;55.040;73.076;2022-09-12T05:26:59;1.98;;;0.63;;
72354;SDS011;60314;55.040;73.076;2022-09-12T05:29:28;2.58;;;0.63;;
72354;SDS011;60314;55.040;73.076;2022-09-12T05:31:54;2.60;;;0.50;;
72354;SDS011;60314;55.040;73.076;2022-09-12T05:34:21;2.35;;;0.65;;
72354;SDS011;60314;55.040;73.076;2022-09-12T05:36:48;1.65;;;0.60;;
72354;SDS011;60314;55.040;73.076;2022-09-12T05:39:15;1.17;;;0.60;;
72354;SDS011;60314;55.040;73.076;2022-09-12T05:41:43;1.40;;;0.45;;
72354;SDS011;60314;55.040;73.076;2022-09-12T05:44:10;6.10;;;0.85;;
72354;SDS011;60314;55.040;73.076;2022-09-12T05:46:41;1.38;;;0.50;;
72354;SDS011;60314;55.040;73.076;2022-09-12T05:49:10;1.52;;;0.55;;
72354;SDS011;60314;55.040;73.076;2022-09-12T05:51:39;1.42;;;0.60;;
72354;SDS011;60314;55.040;73.076;2022-09-12T05:54:12;3.65;;;0.60;;
72354;SDS011;60314;55.040;73.076;2022-09-12T05:56:42;1.10;;;0.50;;
72354;SDS011;60314;55.040;73.076;2022-09-12T05:59:40;1.30;;;0.50;;
72354;SDS011;60314;55.040;73.076;2022-09-12T06:02:09;1.27;;;0.50;;
72354;SDS011;60314;55.040;73.076;2022-09-12T06:04:38;1.60;;;0.50;;
72354;SDS011;60314;55.040;73.076;2022-09-12T06:07:25;2.00;;;0.50;;
72354;SDS011;60314;55.040;73.076;2022-09-12T06:09:54;1.45;;;0.52;;
72354;SDS011;60314;55.040;73.076;2022-09-12T06:12:29;1.50;;;0.60;;
72354;SDS011;60314;55.040;73.076;2022-09-12T06:14:56;1.98;;;0.52;;
72354;SDS011;60314;55.040;73.076;2022-09-12T06:17:25;1.52;;;0.50;;
72354;SDS011;60314;55.040;73.076;2022-09-12T06:20:02;2.10;;;0.70;;
72354;SDS011;60314;55.040;73.076;2022-09-12T06:22:34;1.13;;;0.47;;
72354;SDS011;60314;55.040;73.076;2022-09-12T06:25:00;1.70;;;0.60;;
72354;SDS011;60314;55.040;73.076;2022-09-12T06:27:29;1.80;;;0.60;;
72354;SDS011;60314;55.040;73.076;2022-09-12T06:30:04;1.50;;;0.40;;
72354;SDS011;60314;55.040;73.076;2022-09-12T06:33:10;1.40;;;0.50;;
72354;SDS011;60314;55.040;73.076;2022-09-12T06:35:47;1.55;;;0.60;;
72354;SDS011;60314;55.040;73.076;2022-09-12T06:38:34;2.00;;;0.50;;
72354;SDS011;60314;55.040;73.076;2022-09-12T06:41:02;1.05;;;0.50;;
72354;SDS011;60314;55.040;73.076;2022-09-12T06:43:31;1.38;;;0.55;;
72354;SDS011;60314;55.040;73.076;2022-09-12T06:46:09;1.45;;;0.52;;
72354;SDS011;60314;55.040;73.076;2022-09-12T06:48:36;1.98;;;0.60;;
72354;SDS011;60314;55.040;73.076;2022-09-12T06:51:04;1.63;;;0.60;;
72354;SDS011;60314;55.040;73.076;2022-09-12T06:53:35;7.55;;;0.80;;
72354;SDS011;60314;55.040;73.076;2022-09-12T06:56:10;1.45;;;0.60;;
72354;SDS011;60314;55.040;73.076;2022-09-12T06:58:41;1.30;;;0.50;;
72354;SDS011;60314;55.040;73.076;2022-09-12T07:01:09;1.25;;;0.40;;
72354;SDS011;60314;55.040;73.076;2022-09-12T07:03:37;1.80;;;0.50;;
72354;SDS011;60314;55.040;73.076;2022-09-12T07:06:05;2.10;;;0.55;;
72354;SDS011;60314;55.040;73.076;2022-09-12T07:08:33;1.85;;;0.50;;
72354;SDS011;60314;55.040;73.076;2022-09-12T07:13:50;1.35;;;0.50;;
72354;SDS011;60314;55.040;73.076;2022-09-12T07:16:17;1.55;;;0.60;;
72354;SDS011;60314;55.040;73.076;2022-09-12T07:18:58;1.67;;;0.50;;
72354;SDS011;60314;55.040;73.076;2022-09-12T07:21:49;1.33;;;0.50;;
72354;SDS011;60314;55.040;73.076;2022-09-12T07:24:20;0.95;;;0.40;;
72354;SDS011;60314;55.040;73.076;2022-09-12T07:26:47;1.70;;;0.70;;
72354;SDS011;60314;55.040;73.076;2022-09-12T07:29:14;2.40;;;0.50;;
72354;SDS011;60314;55.040;73.076;2022-09-12T07:31:41;1.58;;;0.60;;
72354;SDS011;60314;55.040;73.076;2022-09-12T07:34:08;4.35;;;0.70;;
72354;SDS011;60314;55.040;73.076;2022-09-12T07:36:35;1.73;;;0.60;;
72354;SDS011;60314;55.040;73.076;2022-09-12T07:39:02;1.48;;;0.47;;
72354;SDS011;60314;55.040;73.076;2022-09-12T07:41:30;4.85;;;0.68;;
72354;SDS011;60314;55.040;73.076;2022-09-12T07:43:59;1.65;;;0.60;;
72354;SDS011;60314;55.040;73.076;2022-09-12T07:46:36;2.10;;;0.60;;
72354;SDS011;60314;55.040;73.076;2022-09-12T07:49:05;1.27;;;0.50;;
72354;SDS011;60314;55.040;73.076;2022-09-12T07:51:31;1.60;;;0.50;;
72354;SDS011;60314;55.040;73.076;2022-09-12T07:54:06;1.52;;;0.47;;
72354;SDS011;60314;55.040;73.076;2022-09-12T07:56:34;1.50;;;0.50;;
72354;SDS011;60314;55.040;73.076;2022-09-12T07:59:00;3.50;;;0.70;;
72354;SDS011;60314;55.040;73.076;2022-09-12T08:01:27;2.08;;;0.80;;
72354;SDS011;60314;55.040;73.076;2022-09-12T08:03:54;3.00;;;0.60;;
72354;SDS011;60314;55.040;73.076;2022-09-12T08:06:22;2.17;;;0.80;;
72354;SDS011;60314;55.040;73.076;2022-09-12T08:08:51;2.88;;;0.65;;
72354;SDS011;60314;55.040;73.076;2022-09-12T08:11:20;2.92;;;0.60;;
72354;SDS011;60314;55.040;73.076;2022-09-12T08:13:48;2.58;;;0.77;;
72354;SDS011;60314;55.040;73.076;2022-09-12T08:16:17;2.28;;;0.70;;
72354;SDS011;60314;55.040;73.076;2022-09-12T08:18:48;1.42;;;0.50;;
72354;SDS011;60314;55.040;73.076;2022-09-12T08:21:16;1.60;;;0.60;;
72354;SDS011;60314;55.040;73.076;2022-09-12T08:23:52;1.17;;;0.55;;
72354;SDS011;60314;55.040;73.076;2022-09-12T08:26:20;1.48;;;0.60;;
72354;SDS011;60314;55.040;73.076;2022-09-12T08:28:47;1.13;;;0.40;;
72354;SDS011;60314;55.040;73.076;2022-09-12T08:31:15;1.58;;;0.60;;
72354;SDS011;60314;55.040;73.076;2022-09-12T08:33:44;2.20;;;0.50;;
72354;SDS011;60314;55.040;73.076;2022-09-12T08:36:21;2.55;;;0.90;;
72354;SDS011;60314;55.040;73.076;2022-09-12T08:38:50;1.83;;;0.70;;
72354;SDS011;60314;55.040;73.076;2022-09-12T08:41:24;1.58;;;0.60;;
72354;SDS011;60314;55.040;73.076;2022-09-12T08:44:12;3.58;;;0.80;;
72354;SDS011;60314;55.040;73.076;2022-09-12T08:49:13;1.42;;;0.45;;
72354;SDS011;60314;55.040;73.076;2022-09-12T08:52:02;1.88;;;0.70;;
72354;SDS011;60314;55.040;73.076;2022-09-12T08:54:32;2.72;;;0.60;;
72354;SDS011;60314;55.040;73.076;2022-09-12T08:57:03;2.15;;;0.80;;
72354;SDS011;60314;55.040;73.076;2022-09-12T08:59:39;2.10;;;0.60;;
72354;SDS011;60314;55.040;73.076;2022-09-12T09:03:09;1.80;;;0.60;;
72354;SDS011;60314;55.040;73.076;2022-09-12T09:17:57;1.45;;;0.50;;
72354;SDS011;60314;55.040;73.076;2022-09-12T09:23:54;1.77;;;0.55;;
72354;SDS011;60314;55.040;73.076;2022-09-12T09:31:37;1.40;;;0.60;;
72354;SDS011;60314;55.040;73.076;2022-09-12T09:34:27;1.50;;;0.60;;
72354;SDS011;60314;55.040;73.076;2022-09-12T09:45:12;1.27;;;0.50;;
72354;SDS011;60314;55.040;73.076;2022-09-12T09:47:48;1.80;;;0.60;;
72354;SDS011;60314;55.040;73.076;2022-09-12T09:50:22;2.00;;;0.57;;
72354;SDS011;60314;55.040;73.076;2022-09-12T09:52:58;2.55;;;0.70;;
72354;SDS011;60314;55.040;73.076;2022-09-12T09:55:32;1.38;;;0.47;;
72354;SDS011;60314;55.040;73.076;2022-09-12T09:58:03;2.70;;;0.60;;
72354;SDS011;60314;55.040;73.076;2022-09-12T10:00:31;1.98;;;0.65;;
72354;SDS011;60314;55.040;73.076;2022-09-12T10:05:46;1.25;;;0.50;;
72354;SDS011;60314;55.040;73.076;2022-09-12T10:08:30;1.80;;;0.70;;
72354;SDS011;60314;55.040;73.076;2022-09-12T10:11:05;3.05;;;0.63;;
72354;SDS011;60314;55.040;73.076;2022-09-12T10:13:52;1.33;;;0.50;;
72354;SDS011;60314;55.040;73.076;2022-09-12T10:16:25;1.75;;;0.60;;
72354;SDS011;60314;55.040;73.076;2022-09-12T10:18:57;4.60;;;0.60;;
72354;SDS011;60314;55.040;73.076;2022-09-12T10:24:25;1.48;;;0.50;;
72354;SDS011;60314;55.040;73.076;2022-09-12T10:26:56;2.22;;;0.70;;
72354;SDS011;60314;55.040;73.076;2022-09-12T10:29:45;2.42;;;0.60;;
72354;SDS011;60314;55.040;73.076;2022-09-12T10:32:20;1.50;;;0.50;;
72354;SDS011;60314;55.040;73.076;2022-09-12T10:34:56;2.35;;;0.60;;
72354;SDS011;60314;55.040;73.076;2022-09-12T10:37:34;1.83;;;0.70;;
72354;SDS011;60314;55.040;73.076;2022-09-12T10:40:05;1.73;;;0.70;;
72354;SDS011;60314;55.040;73.076;2022-09-12T10:42:46;1.77;;;0.70;;
72354;SDS011;60314;55.040;73.076;2022-09-12T10:45:23;1.67;;;0.50;;
72354;SDS011;60314;55.040;73.076;2022-09-12T10:47:55;1.58;;;0.65;;
72354;SDS011;60314;55.040;73.076;2022-09-12T10:50:28;1.27;;;0.40;;
72354;SDS011;60314;55.040;73.076;2022-09-12T10:58:34;1.73;;;0.70;;
72354;SDS011;60314;55.040;73.076;2022-09-12T11:09:43;2.42;;;0.52;;
72354;SDS011;60314;55.040;73.076;2022-09-12T11:18:11;1.50;;;0.50;;
72354;SDS011;60314;55.040;73.076;2022-09-12T11:26:13;1.80;;;0.50;;
72354;SDS011;60314;55.040;73.076;2022-09-12T11:29:16;2.88;;;0.60;;
72354;SDS011;60314;55.040;73.076;2022-09-12T11:37:43;3.92;;;0.60;;
72354;SDS011;60314;55.040;73.076;2022-09-12T11:43:22;2.42;;;0.75;;
72354;SDS011;60314;55.040;73.076;2022-09-12T11:48:53;2.80;;;0.68;;
72354;SDS011;60314;55.040;73.076;2022-09-12T11:51:27;1.70;;;0.60;;
72354;SDS011;60314;55.040;73.076;2022-09-12T11:54:12;5.13;;;0.80;;
72354;SDS011;60314;55.040;73.076;2022-09-12T11:57:03;2.85;;;0.75;;
72354;SDS011;60314;55.040;73.076;2022-09-12T11:59:36;4.43;;;0.80;;
72354;SDS011;60314;55.040;73.076;2022-09-12T12:02:25;2.20;;;0.70;;
72354;SDS011;60314;55.040;73.076;2022-09-12T12:07:51;2.25;;;0.70;;
72354;SDS011;60314;55.040;73.076;2022-09-12T12:10:25;2.05;;;0.70;;
72354;SDS011;60314;55.040;73.076;2022-09-12T12:12:58;1.52;;;0.55;;
72354;SDS011;60314;55.040;73.076;2022-09-12T12:15:28;7.13;;;0.90;;
72354;SDS011;60314;55.040;73.076;2022-09-12T12:18:05;3.83;;;0.85;;
72354;SDS011;60314;55.040;73.076;2022-09-12T12:20:42;2.00;;;0.80;;
72354;SDS011;60314;55.040;73.076;2022-09-12T12:25:54;5.13;;;1.30;;
72354;SDS011;60314;55.040;73.076;2022-09-12T12:31:17;5.05;;;2.15;;
72354;SDS011;60314;55.040;73.076;2022-09-12T12:33:54;9.02;;;2.85;;
72354;SDS011;60314;55.040;73.076;2022-09-12T12:36:28;6.43;;;2.58;;
72354;SDS011;60314;55.040;73.076;2022-09-12T12:47:40;5.60;;;3.00;;
72354;SDS011;60314;55.040;73.076;2022-09-12T12:53:20;8.75;;;4.05;;
72354;SDS011;60314;55.040;73.076;2022-09-12T12:58:22;12.90;;;4.40;;
72354;SDS011;60314;55.040;73.076;2022-09-12T13:01:12;12.98;;;2.72;;
72354;SDS011;60314;55.040;73.076;2022-09-12T13:03:58;7.53;;;1.92;;
72354;SDS011;60314;55.040;73.076;2022-09-12T13:06:35;16.40;;;3.63;;
72354;SDS011;60314;55.040;73.076;2022-09-12T13:09:08;14.10;;;3.40;;
72354;SDS011;60314;55.040;73.076;2022-09-12T13:12:46;13.27;;;3.60;;
72354;SDS011;60314;55.040;73.076;2022-09-12T13:18:03;15.45;;;3.20;;
72354;SDS011;60314;55.040;73.076;2022-09-12T13:20:33;24.88;;;3.92;;
72354;SDS011;60314;55.040;73.076;2022-09-12T13:23:03;12.32;;;3.60;;
72354;SDS011;60314;55.040;73.076;2022-09-12T13:25:31;17.63;;;3.75;;
72354;SDS011;60314;55.040;73.076;2022-09-12T13:33:58;11.20;;;3.33;;
72354;SDS011;60314;55.040;73.076;2022-09-12T13:39:58;15.90;;;3.67;;
72354;SDS011;60314;55.040;73.076;2022-09-12T13:47:48;14.10;;;3.60;;
72354;SDS011;60314;55.040;73.076;2022-09-12T13:51:04;15.38;;;4.05;;
72354;SDS011;60314;55.040;73.076;2022-09-12T13:53:30;21.20;;;4.40;;
72354;SDS011;60314;55.040;73.076;2022-09-12T13:56:05;24.98;;;7.28;;
72354;SDS011;60314;55.040;73.076;2022-09-12T13:58:32;18.52;;;6.90;;
72354;SDS011;60314;55.040;73.076;2022-09-12T14:01:04;17.10;;;6.10;;
72354;SDS011;60314;55.040;73.076;2022-09-12T14:03:51;23.13;;;6.32;;
72354;SDS011;60314;55.040;73.076;2022-09-12T14:06:42;17.52;;;6.05;;
72354;SDS011;60314;55.040;73.076;2022-09-12T14:09:25;19.45;;;5.97;;
72354;SDS011;60314;55.040;73.076;2022-09-12T14:12:03;26.38;;;7.47;;
72354;SDS011;60314;55.040;73.076;2022-09-12T14:14:31;19.73;;;7.10;;
72354;SDS011;60314;55.040;73.076;2022-09-12T14:20:17;26.02;;;10.07;;
72354;SDS011;60314;55.040;73.076;2022-09-12T14:22:45;27.70;;;9.82;;
72354;SDS011;60314;55.040;73.076;2022-09-12T14:25:13;30.70;;;9.38;;
72354;SDS011;60314;55.040;73.076;2022-09-12T14:27:43;42.42;;;17.63;;
72354;SDS011;60314;55.040;73.076;2022-09-12T14:30:20;36.08;;;13.65;;
72354;SDS011;60314;55.040;73.076;2022-09-12T14:33:03;38.17;;;14.90;;
72354;SDS011;60314;55.040;73.076;2022-09-12T14:35:52;42.80;;;13.20;;
72354;SDS011;60314;55.040;73.076;2022-09-12T14:38:45;36.30;;;13.07;;
72354;SDS011;60314;55.040;73.076;2022-09-12T14:41:21;38.15;;;14.77;;
72354;SDS011;60314;55.040;73.076;2022-09-12T14:43:54;88.10;;;35.45;;
72354;SDS011;60314;55.040;73.076;2022-09-12T14:46:38;114.82;;;48.65;;
72354;SDS011;60314;55.040;73.076;2022-09-12T14:49:19;86.47;;;33.67;;
72354;SDS011;60314;55.040;73.076;2022-09-12T14:51:57;43.53;;;18.88;;
72354;SDS011;60314;55.040;73.076;2022-09-12T14:54:37;90.50;;;39.22;;
72354;SDS011;60314;55.040;73.076;2022-09-12T14:57:13;98.05;;;40.80;;
72354;SDS011;60314;55.040;73.076;2022-09-12T15:00:15;101.70;;;42.65;;
72354;SDS011;60314;55.040;73.076;2022-09-12T15:02:51;106.80;;;43.88;;
72354;SDS011;60314;55.040;73.076;2022-09-12T15:05:22;101.35;;;39.97;;
72354;SDS011;60314;55.040;73.076;2022-09-12T15:07:58;98.10;;;40.42;;
72354;SDS011;60314;55.040;73.076;2022-09-12T15:10:35;104.18;;;41.17;;
72354;SDS011;60314;55.040;73.076;2022-09-12T15:15:34;85.97;;;36.03;;
72354;SDS011;60314;55.040;73.076;2022-09-12T15:18:11;64.70;;;27.08;;
72354;SDS011;60314;55.040;73.076;2022-09-12T15:20:39;73.00;;;28.60;;
72354;SDS011;60314;55.040;73.076;2022-09-12T15:23:19;59.53;;;24.52;;
72354;SDS011;60314;55.040;73.076;2022-09-12T15:26:05;60.08;;;25.50;;
72354;SDS011;60314;55.040;73.076;2022-09-12T15:28:34;70.30;;;24.80;;
72354;SDS011;60314;55.040;73.076;2022-09-12T15:31:05;67.15;;;26.25;;
72354;SDS011;60314;55.040;73.076;2022-09-12T15:33:45;69.53;;;28.92;;
72354;SDS011;60314;55.040;73.076;2022-09-12T15:36:17;90.68;;;31.70;;
72354;SDS011;60314;55.040;73.076;2022-09-12T15:38:50;63.47;;;28.42;;
72354;SDS011;60314;55.040;73.076;2022-09-12T15:41:22;78.05;;;30.45;;
72354;SDS011;60314;55.040;73.076;2022-09-12T15:43:51;73.22;;;31.45;;
72354;SDS011;60314;55.040;73.076;2022-09-12T15:46:18;72.22;;;28.98;;
72354;SDS011;60314;55.040;73.076;2022-09-12T15:48:45;66.82;;;28.45;;
72354;SDS011;60314;55.040;73.076;2022-09-12T15:51:17;67.68;;;28.73;;
72354;SDS011;60314;55.040;73.076;2022-09-12T15:53:45;68.55;;;29.15;;
72354;SDS011;60314;55.040;73.076;2022-09-12T15:56:17;73.88;;;28.35;;
72354;SDS011;60314;55.040;73.076;2022-09-12T15:58:46;70.43;;;29.67;;
72354;SDS011;60314;55.040;73.076;2022-09-12T16:01:13;72.13;;;28.40;;
72354;SDS011;60314;55.040;73.076;2022-09-12T16:03:41;64.95;;;29.83;;
72354;SDS011;60314;55.040;73.076;2022-09-12T16:06:10;67.82;;;29.80;;
72354;SDS011;60314;55.040;73.076;2022-09-12T16:08:37;64.65;;;30.02;;
72354;SDS011;60314;55.040;73.076;2022-09-12T16:11:04;67.75;;;28.42;;
72354;SDS011;60314;55.040;73.076;2022-09-12T16:13:36;68.95;;;27.33;;
72354;SDS011;60314;55.040;73.076;2022-09-12T16:16:02;69.00;;;28.13;;
72354;SDS011;60314;55.040;73.076;2022-09-12T16:18:29;60.67;;;26.27;;
72354;SDS011;60314;55.040;73.076;2022-09-12T16:20:55;57.13;;;24.63;;
72354;SDS011;60314;55.040;73.076;2022-09-12T16:23:22;48.25;;;21.88;;
72354;SDS011;60314;55.040;73.076;2022-09-12T16:25:58;39.83;;;17.23;;
72354;SDS011;60314;55.040;73.076;2022-09-12T16:28:26;39.75;;;15.20;;
72354;SDS011;60314;55.040;73.076;2022-09-12T16:30:56;37.78;;;15.75;;
72354;SDS011;60314;55.040;73.076;2022-09-12T16:33:25;39.10;;;16.35;;
72354;SDS011;60314;55.040;73.076;2022-09-12T16:36:01;40.38;;;17.75;;
72354;SDS011;60314;55.040;73.076;2022-09-12T16:38:39;49.97;;;20.45;;
72354;SDS011;60314;55.040;73.076;2022-09-12T16:41:06;47.03;;;20.40;;
72354;SDS011;60314;55.040;73.076;2022-09-12T16:43:44;51.45;;;22.92;;
72354;SDS011;60314;55.040;73.076;2022-09-12T16:48:49;53.15;;;22.85;;
72354;SDS011;60314;55.040;73.076;2022-09-12T16:51:20;63.35;;;27.42;;
72354;SDS011;60314;55.040;73.076;2022-09-12T16:53:48;64.40;;;27.98;;
72354;SDS011;60314;55.040;73.076;2022-09-12T16:56:15;61.38;;;27.55;;
72354;SDS011;60314;55.040;73.076;2022-09-12T16:58:42;61.88;;;28.30;;
72354;SDS011;60314;55.040;73.076;2022-09-12T17:01:14;60.10;;;25.88;;
72354;SDS011;60314;55.040;73.076;2022-09-12T17:03:53;57.28;;;23.98;;
72354;SDS011;60314;55.040;73.076;2022-09-12T17:06:26;60.38;;;25.08;;
72354;SDS011;60314;55.040;73.076;2022-09-12T17:08:54;61.75;;;24.73;;
72354;SDS011;60314;55.040;73.076;2022-09-12T17:11:34;52.05;;;22.73;;
72354;SDS011;60314;55.040;73.076;2022-09-12T17:14:05;55.45;;;22.58;;
72354;SDS011;60314;55.040;73.076;2022-09-12T17:16:41;53.10;;;21.17;;
72354;SDS011;60314;55.040;73.076;2022-09-12T17:19:13;50.88;;;22.38;;
72354;SDS011;60314;55.040;73.076;2022-09-12T17:21:45;60.95;;;24.90;;
72354;SDS011;60314;55.040;73.076;2022-09-12T17:24:23;53.13;;;22.63;;
72354;SDS011;60314;55.040;73.076;2022-09-12T17:26:51;48.65;;;22.35;;
72354;SDS011;60314;55.040;73.076;2022-09-12T17:29:18;53.38;;;23.13;;
72354;SDS011;60314;55.040;73.076;2022-09-12T17:31:45;53.92;;;22.33;;
72354;SDS011;60314;55.040;73.076;2022-09-12T17:34:22;49.30;;;22.10;;
72354;SDS011;60314;55.040;73.076;2022-09-12T17:36:54;49.00;;;21.67;;
72354;SDS011;60314;55.040;73.076;2022-09-12T17:39:20;52.50;;;20.60;;
72354;SDS011;60314;55.040;73.076;2022-09-12T17:41:47;44.65;;;19.95;;
72354;SDS011;60314;55.040;73.076;2022-09-12T17:44:16;45.50;;;20.05;;
72354;SDS011;60314;55.040;73.076;2022-09-12T17:46:43;44.55;;;19.98;;
72354;SDS011;60314;55.040;73.076;2022-09-12T17:49:19;47.53;;;20.73;;
72354;SDS011;60314;55.040;73.076;2022-09-12T17:51:56;41.95;;;18.20;;
72354;SDS011;60314;55.040;73.076;2022-09-12T17:54:23;44.38;;;19.40;;
72354;SDS011;60314;55.040;73.076;2022-09-12T17:56:49;46.78;;;19.73;;
72354;SDS011;60314;55.040;73.076;2022-09-12T17:59:17;39.08;;;18.08;;
72354;SDS011;60314;55.040;73.076;2022-09-12T18:01:50;33.03;;;16.23;;